createdAt,value
2022-08-05T00:00:51.088Z,20.91
2022-08-05T00:03:52.827Z,20.86
2022-08-05T00:06:54.402Z,20.81
2022-08-05T00:09:57.482Z,20.77
2022-08-05T00:13:00.203Z,20.68
2022-08-05T00:16:01.908Z,20.64
2022-08-05T00:19:04.791Z,20.57
2022-08-05T00:22:11.334Z,20.50
2022-08-05T00:25:13.380Z,20.45
2022-08-05T00:28:29.454Z,20.40
2022-08-05T00:31:53.762Z,20.34
2022-08-05T00:35:06.583Z,20.32
2022-08-05T00:38:09.571Z,20.27
2022-08-05T00:41:11.874Z,20.23
2022-08-05T00:44:13.682Z,20.22
2022-08-05T00:47:16.427Z,20.15
2022-08-05T00:50:18.768Z,20.15
2022-08-05T00:54:00.466Z,20.09
2022-08-05T00:56:51.867Z,20.05
2022-08-05T00:59:54.438Z,20.05
2022-08-05T01:02:57.505Z,20.03
2022-08-05T01:06:01.552Z,19.98
2022-08-05T01:09:06.219Z,19.90
2022-08-05T01:12:18.592Z,19.92
2022-08-05T01:15:36.141Z,19.84
2022-08-05T01:18:43.202Z,19.81
2022-08-05T01:22:15.409Z,19.76
2022-08-05T01:25:53.368Z,19.72
2022-08-05T01:29:09.846Z,19.72
2022-08-05T01:32:18.651Z,19.67
2022-08-05T01:35:50.920Z,19.65
2022-08-05T01:38:50.901Z,19.62
2022-08-05T01:41:54.345Z,19.62
2022-08-05T01:44:59.205Z,19.62
2022-08-05T01:48:03.133Z,19.62
2022-08-05T01:51:14.556Z,19.57
2022-08-05T01:54:19.480Z,19.54
2022-08-05T01:58:09.489Z,19.52
2022-08-05T02:00:56.672Z,19.49
2022-08-05T02:04:01.506Z,19.46
2022-08-05T02:07:03.574Z,19.48
2022-08-05T02:10:08.943Z,19.47
2022-08-05T02:13:27.882Z,19.43
2022-08-05T02:16:52.241Z,19.32
2022-08-05T02:20:03.077Z,19.24
2022-08-05T02:23:09.703Z,19.12
2022-08-05T02:26:17.074Z,19.06
2022-08-05T02:29:26.002Z,19.01
2022-08-05T02:32:48.127Z,18.95
2022-08-05T02:35:56.286Z,18.91
2022-08-05T02:39:03.048Z,18.94
2022-08-05T02:42:06.950Z,18.80
2022-08-05T02:45:11.465Z,18.61
2022-08-05T02:48:14.391Z,18.49
2022-08-05T02:51:19.073Z,18.41
2022-08-05T02:54:35.007Z,18.41
2022-08-05T02:58:10.936Z,18.41
2022-08-05T03:01:02.723Z,18.42
2022-08-05T03:04:14.215Z,18.44
2022-08-05T03:07:24.735Z,18.47
2022-08-05T03:10:44.495Z,18.45
2022-08-05T03:14:07.960Z,18.42
2022-08-05T03:17:09.866Z,18.38
2022-08-05T03:20:12.060Z,18.45
2022-08-05T03:23:15.806Z,18.38
2022-08-05T03:26:31.582Z,18.33
2022-08-05T03:29:45.734Z,18.29
2022-08-05T03:32:56.280Z,18.24
2022-08-05T03:35:58.842Z,18.24
2022-08-05T03:39:07.566Z,18.24
2022-08-05T03:42:10.060Z,18.21
2022-08-05T03:45:21.553Z,18.20
2022-08-05T03:48:24.971Z,18.21
2022-08-05T03:52:50.440Z,18.21
2022-08-05T03:56:04.085Z,18.20
2022-08-05T03:58:33.373Z,18.15
2022-08-05T04:01:39.777Z,18.16
2022-08-05T04:04:44.893Z,18.10
2022-08-05T04:07:57.205Z,18.10
2022-08-05T04:11:01.875Z,18.09
2022-08-05T04:14:04.857Z,18.09
2022-08-05T04:17:08.888Z,18.10
2022-08-05T04:20:20.394Z,18.04
2022-08-05T04:24:05.695Z,18.00
2022-08-05T04:26:47.821Z,18.04
2022-08-05T04:29:49.523Z,18.03
2022-08-05T04:32:51.921Z,18.04
2022-08-05T04:36:16.472Z,18.01
2022-08-05T04:39:16.667Z,18.02
2022-08-05T04:42:18.503Z,18.07
2022-08-05T04:45:47.694Z,18.10
2022-08-05T04:48:48.752Z,18.15
2022-08-05T04:52:00.524Z,18.16
2022-08-05T04:55:05.339Z,18.18
2022-08-05T04:58:20.196Z,18.23
2022-08-05T05:02:07.981Z,18.25
2022-08-05T05:04:49.802Z,18.31
2022-08-05T05:07:52.818Z,18.32
2022-08-05T05:10:58.143Z,18.37
2022-08-05T05:14:00.791Z,18.38
2022-08-05T05:17:07.489Z,18.42
2022-08-05T05:20:12.508Z,18.41
2022-08-05T05:23:19.927Z,18.43
2022-08-05T05:26:28.172Z,18.44
2022-08-05T05:30:04.581Z,18.41
2022-08-05T05:32:56.558Z,18.39
2022-08-05T05:35:58.391Z,18.40
2022-08-05T05:39:03.597Z,18.40
2022-08-05T05:42:06.087Z,18.37
2022-08-05T05:45:09.268Z,18.35
2022-08-05T05:48:11.060Z,18.35
2022-08-05T05:51:20.193Z,18.35
2022-08-05T05:54:22.050Z,18.34
2022-08-05T05:57:52.101Z,18.29
2022-08-05T06:00:54.790Z,18.21
2022-08-05T06:04:02.195Z,18.16
2022-08-05T06:07:05.737Z,18.14
2022-08-05T06:10:10.529Z,18.07
2022-08-05T06:13:12.469Z,17.99
2022-08-05T06:16:30.596Z,17.80
2022-08-05T06:19:34.745Z,17.46
2022-08-05T06:22:37.461Z,17.19
2022-08-05T06:26:12.812Z,17.09
2022-08-05T06:29:06.968Z,17.07
2022-08-05T06:32:29.164Z,17.07
2022-08-05T06:36:07.341Z,17.05
2022-08-05T06:38:54.702Z,17.03
2022-08-05T06:42:16.980Z,17.05
2022-08-05T06:45:44.571Z,17.05
2022-08-05T06:48:56.065Z,17.04
2022-08-05T06:52:01.099Z,17.06
2022-08-05T06:55:02.906Z,17.07
2022-08-05T06:58:29.804Z,17.11
2022-08-05T07:01:27.692Z,17.14
2022-08-05T07:04:34.217Z,17.14
2022-08-05T07:07:43.906Z,17.19
2022-08-05T07:10:52.888Z,17.19
2022-08-05T07:14:20.792Z,17.23
2022-08-05T07:18:00.539Z,17.21
2022-08-05T07:20:53.314Z,17.28
2022-08-05T07:23:55.292Z,17.27
2022-08-05T07:26:57.035Z,17.34
2022-08-05T07:30:27.815Z,17.37
2022-08-05T07:33:37.119Z,17.42
2022-08-05T07:36:39.338Z,17.43
2022-08-05T07:40:04.611Z,17.38
2022-08-05T07:43:04.754Z,17.39
2022-08-05T07:46:25.207Z,17.37
2022-08-05T07:49:27.671Z,17.34
2022-08-05T07:52:29.657Z,17.29
2022-08-05T07:56:05.232Z,17.27
2022-08-05T07:58:57.456Z,17.25
2022-08-05T08:02:03.227Z,17.30
2022-08-05T08:05:05.549Z,17.37
2022-08-05T08:08:07.231Z,17.43
2022-08-05T08:11:16.067Z,17.45
2022-08-05T08:14:19.038Z,17.45
2022-08-05T08:17:21.279Z,17.46
2022-08-05T08:20:59.806Z,17.41
2022-08-05T08:24:03.101Z,17.41
2022-08-05T08:27:07.400Z,17.45
2022-08-05T08:30:27.741Z,17.43
2022-08-05T08:33:35.980Z,17.46
2022-08-05T08:36:48.961Z,17.43
2022-08-05T08:39:54.513Z,17.43
2022-08-05T08:42:56.794Z,17.37
2022-08-05T08:46:01.572Z,17.33
2022-08-05T08:50:14.664Z,17.37
2022-08-05T08:52:31.307Z,17.40
2022-08-05T08:56:03.718Z,17.37
2022-08-05T08:58:59.914Z,17.37
2022-08-05T09:02:08.442Z,17.37
2022-08-05T09:05:16.298Z,17.34
2022-08-05T09:08:19.730Z,17.34
2022-08-05T09:11:52.037Z,17.38
2022-08-05T09:14:58.095Z,17.44
2022-08-05T09:18:09.005Z,17.50
2022-08-05T09:21:11.468Z,17.52
2022-08-05T09:24:22.386Z,17.57
2022-08-05T09:28:04.024Z,17.65
2022-08-05T09:31:22.230Z,17.67
2022-08-05T09:34:26.620Z,17.67
2022-08-05T09:38:16.649Z,17.72
2022-08-05T09:40:52.198Z,17.74
2022-08-05T09:43:55.032Z,17.76
2022-08-05T09:47:10.374Z,17.77
2022-08-05T09:50:38.231Z,17.79
2022-08-05T09:53:54.336Z,17.76
2022-08-05T09:57:01.818Z,17.79
2022-08-05T10:00:12.809Z,17.79
2022-08-05T10:03:16.672Z,17.80
2022-08-05T10:06:21.971Z,17.81
2022-08-05T10:09:28.239Z,17.76
2022-08-05T10:12:49.445Z,17.76
2022-08-05T10:15:52.069Z,17.69
2022-08-05T10:18:55.546Z,17.69
2022-08-05T10:21:59.525Z,17.69
2022-08-05T10:25:01.344Z,17.65
2022-08-05T10:28:13.382Z,17.58
2022-08-05T10:32:52.722Z,17.47
2022-08-05T10:34:42.008Z,17.35
2022-08-05T10:37:45.262Z,17.29
2022-08-05T10:40:58.193Z,17.29
2022-08-05T10:44:06.222Z,17.26
2022-08-05T10:47:26.140Z,17.21
2022-08-05T10:50:36.872Z,17.13
2022-08-05T10:54:00.937Z,17.19
2022-08-05T10:57:03.886Z,17.17
2022-08-05T11:00:23.546Z,17.17
2022-08-05T11:03:27.128Z,17.15
2022-08-05T11:06:31.149Z,17.19
2022-08-05T11:09:51.150Z,17.19
2022-08-05T11:13:06.870Z,17.21
2022-08-05T11:16:47.470Z,17.28
2022-08-05T11:20:10.966Z,17.31
2022-08-05T11:23:33.502Z,17.42
2022-08-05T11:27:51.537Z,17.53
2022-08-05T11:30:58.713Z,17.58
2022-08-05T11:34:03.719Z,17.64
2022-08-05T11:38:28.478Z,17.66
2022-08-05T11:41:00.796Z,17.75
2022-08-05T11:44:40.373Z,17.76
2022-08-05T11:47:48.593Z,17.73
2022-08-05T11:50:53.164Z,17.65
2022-08-05T11:53:56.247Z,17.58
2022-08-05T11:56:58.369Z,17.53
2022-08-05T12:00:04.015Z,17.54
2022-08-05T12:03:23.873Z,17.58
2022-08-05T12:06:35.870Z,17.57
2022-08-05T12:09:53.332Z,17.49
2022-08-05T12:13:03.188Z,17.43
2022-08-05T12:16:26.967Z,17.36
2022-08-05T12:20:26.677Z,17.31
2022-08-05T12:22:51.815Z,17.27
2022-08-05T12:25:56.634Z,17.29
2022-08-05T12:28:59.003Z,17.30
2022-08-05T12:32:05.517Z,17.30
2022-08-05T12:35:09.649Z,17.30
2022-08-05T12:38:11.715Z,17.35
2022-08-05T12:41:16.897Z,17.43
2022-08-05T12:44:28.673Z,17.42
2022-08-05T12:47:36.176Z,17.43
2022-08-05T12:50:38.611Z,17.48
2022-08-05T12:53:44.152Z,17.48
2022-08-05T12:57:09.255Z,17.47
2022-08-05T13:02:02.059Z,17.49
2022-08-05T13:03:48.894Z,17.61
2022-08-05T13:06:53.610Z,17.67
2022-08-05T13:09:58.962Z,17.77
2022-08-05T13:13:06.490Z,17.85
2022-08-05T13:16:15.482Z,17.86
2022-08-05T13:19:24.012Z,17.85
2022-08-05T13:22:29.671Z,17.80
2022-08-05T13:25:51.297Z,17.80
2022-08-05T13:28:53.531Z,17.83
2022-08-05T13:32:03.705Z,17.84
2022-08-05T13:35:07.649Z,17.80
2022-08-05T13:38:10.203Z,17.74
2022-08-05T13:41:23.917Z,17.59
2022-08-05T13:44:39.155Z,17.55
2022-08-05T13:48:09.961Z,17.47
2022-08-05T13:51:10.436Z,17.38
2022-08-05T13:54:13.668Z,17.36
2022-08-05T13:57:17.383Z,17.33
2022-08-05T14:00:26.921Z,17.25
2022-08-05T14:03:30.470Z,17.25
2022-08-05T14:06:34.438Z,17.31
2022-08-05T14:09:43.022Z,17.34
2022-08-05T14:12:48.849Z,17.37
2022-08-05T14:16:09.046Z,17.39
2022-08-05T14:19:12.645Z,17.45
2022-08-05T14:22:14.496Z,17.48
2022-08-05T14:25:21.905Z,17.50
2022-08-05T14:28:26.822Z,17.49
2022-08-05T14:31:54.540Z,17.54
2022-08-05T14:34:50.731Z,17.61
2022-08-05T14:37:55.453Z,17.81
2022-08-05T14:40:57.551Z,17.94
2022-08-05T14:44:09.602Z,18.02
2022-08-05T14:47:11.789Z,18.12
2022-08-05T14:50:18.204Z,18.15
2022-08-05T14:53:20.678Z,18.20
2022-08-05T14:56:23.670Z,18.23
2022-08-05T14:59:29.571Z,18.31
2022-08-05T15:02:37.275Z,18.29
2022-08-05T15:06:12.769Z,18.33
2022-08-05T15:09:04.017Z,18.32
2022-08-05T15:12:06.777Z,18.41
2022-08-05T15:15:15.378Z,18.47
2022-08-05T15:18:17.516Z,18.50
2022-08-05T15:21:21.105Z,18.51
2022-08-05T15:24:22.939Z,18.56
2022-08-05T15:27:25.607Z,18.59
2022-08-05T15:30:28.802Z,18.61
2022-08-05T15:34:05.591Z,18.61
2022-08-05T15:36:52.253Z,18.67
2022-08-05T15:40:59.325Z,18.75
2022-08-05T15:43:20.615Z,18.88
2022-08-05T15:46:24.610Z,18.93
2022-08-05T15:49:53.609Z,18.92
2022-08-05T15:52:54.183Z,18.92
2022-08-05T15:56:01.396Z,19.00
2022-08-05T15:59:04.968Z,18.96
2022-08-05T16:02:09.433Z,18.95
2022-08-05T16:05:16.439Z,18.96
2022-08-05T16:08:18.124Z,19.02
2022-08-05T16:11:39.911Z,19.06
2022-08-05T16:14:45.201Z,19.12
2022-08-05T16:17:58.023Z,19.06
2022-08-05T16:21:04.395Z,18.98
2022-08-05T16:24:07.639Z,18.93
2022-08-05T16:27:16.144Z,18.93
2022-08-05T16:30:26.399Z,18.96
2022-08-05T16:33:32.312Z,18.98
2022-08-05T16:36:43.570Z,19.04
2022-08-05T16:40:05.905Z,19.00
2022-08-05T16:43:07.091Z,18.98
2022-08-05T16:46:23.456Z,18.95
2022-08-05T16:49:26.972Z,18.84
2022-08-05T16:52:33.584Z,18.81
2022-08-05T16:55:47.059Z,18.77
2022-08-05T16:58:49.259Z,18.78
2022-08-05T17:01:53.785Z,18.77
2022-08-05T17:04:57.419Z,18.81
2022-08-05T17:07:59.041Z,18.84
2022-08-05T17:11:01.345Z,18.84
2022-08-05T17:14:06.084Z,18.86
2022-08-05T17:17:09.436Z,18.83
2022-08-05T17:20:16.945Z,18.84
2022-08-05T17:23:42.029Z,18.87
2022-08-05T17:26:40.953Z,18.84
2022-08-05T17:29:42.715Z,18.74
2022-08-05T17:32:44.534Z,18.66
2022-08-05T17:36:07.552Z,18.51
2022-08-05T17:39:24.425Z,18.36
2022-08-05T17:42:32.358Z,18.27
2022-08-05T17:45:38.723Z,18.18
2022-08-05T17:48:40.561Z,18.09
2022-08-05T17:51:46.619Z,18.04
2022-08-05T17:54:52.410Z,17.96
2022-08-05T17:57:55.300Z,17.88
2022-08-05T18:00:57.085Z,17.81
2022-08-05T18:04:04.631Z,17.76
2022-08-05T18:07:07.614Z,17.71
2022-08-05T18:10:20.952Z,17.64
2022-08-05T18:13:23.102Z,17.55
2022-08-05T18:16:27.479Z,17.51
2022-08-05T18:19:29.933Z,17.42
2022-08-05T18:22:46.030Z,17.34
2022-08-05T18:25:57.454Z,17.25
2022-08-05T18:29:03.986Z,17.20
2022-08-05T18:32:12.900Z,17.12
2022-08-05T18:35:16.218Z,17.01
2022-08-05T18:38:25.944Z,16.96
2022-08-05T18:41:57.291Z,16.89
2022-08-05T18:44:55.678Z,16.80
2022-08-05T18:47:58.032Z,16.79
2022-08-05T18:52:04.883Z,16.72
2022-08-05T18:54:45.871Z,16.64
2022-08-05T18:57:53.090Z,16.57
2022-08-05T19:00:56.701Z,16.49
2022-08-05T19:03:58.345Z,16.46
2022-08-05T19:07:00.083Z,16.39
2022-08-05T19:10:02.391Z,16.29
2022-08-05T19:13:15.765Z,16.23
2022-08-05T19:16:22.083Z,16.16
2022-08-05T19:19:31.770Z,16.09
2022-08-05T19:22:33.433Z,15.92
2022-08-05T19:25:41.960Z,15.78
2022-08-05T19:28:45.448Z,15.68
2022-08-05T19:31:51.040Z,15.62
2022-08-05T19:34:55.207Z,15.51
2022-08-05T19:38:06.794Z,15.42
2022-08-05T19:41:11.453Z,15.32
2022-08-05T19:44:14.447Z,15.21
2022-08-05T19:47:16.642Z,15.09
2022-08-05T19:50:20.021Z,15.02
2022-08-05T19:54:04.289Z,14.96
2022-08-05T19:56:43.471Z,14.87
2022-08-05T19:59:55.306Z,14.81
2022-08-05T20:03:13.073Z,14.71
2022-08-05T20:06:15.862Z,14.64
2022-08-05T20:09:30.217Z,14.58
2022-08-05T20:12:51.937Z,14.56
2022-08-05T20:15:57.468Z,14.54
2022-08-05T20:19:00.715Z,14.49
2022-08-05T20:22:05.926Z,14.43
2022-08-05T20:25:11.358Z,14.38
2022-08-05T20:28:16.205Z,14.34
2022-08-05T20:31:21.628Z,14.25
2022-08-05T20:34:29.927Z,14.19
2022-08-05T20:38:06.035Z,14.14
2022-08-05T20:40:53.728Z,14.07
2022-08-05T20:43:58.648Z,14.04
2022-08-05T20:47:05.375Z,13.99
2022-08-05T20:50:11.457Z,13.95
2022-08-05T20:53:16.210Z,13.87
2022-08-05T20:56:42.190Z,13.79
2022-08-05T21:00:11.068Z,13.73
2022-08-05T21:03:08.050Z,13.64
2022-08-05T21:06:27.553Z,13.58
2022-08-05T21:09:30.300Z,13.53
2022-08-05T21:12:36.646Z,13.46
2022-08-05T21:15:40.862Z,13.42
2022-08-05T21:18:46.263Z,13.35
2022-08-05T21:21:50.792Z,13.28
2022-08-05T21:24:54.414Z,13.26
2022-08-05T21:27:58.659Z,13.22
2022-08-05T21:31:00.264Z,13.19
2022-08-05T21:34:01.900Z,13.17
2022-08-05T21:37:04.905Z,13.13
2022-08-05T21:40:07.389Z,13.12
2022-08-05T21:43:24.667Z,13.08
2022-08-05T21:46:26.696Z,13.03
2022-08-05T21:49:58.637Z,13.03
2022-08-05T21:52:52.891Z,12.98
2022-08-05T21:56:05.295Z,12.98
2022-08-05T21:59:24.049Z,12.94
2022-08-05T22:02:27.306Z,12.90
2022-08-05T22:05:29.097Z,12.87
2022-08-05T22:08:52.187Z,12.89
2022-08-05T22:11:54.640Z,12.87
2022-08-05T22:14:58.709Z,12.89
2022-08-05T22:18:01.890Z,12.87
2022-08-05T22:21:04.750Z,12.86
2022-08-05T22:24:40.425Z,12.84
2022-08-05T22:28:08.744Z,12.77
2022-08-05T22:31:08.277Z,12.73
2022-08-05T22:34:25.719Z,12.68
2022-08-05T22:37:58.236Z,12.61
2022-08-05T22:40:55.000Z,12.56
2022-08-05T22:43:59.239Z,12.52
2022-08-05T22:47:00.824Z,12.50
2022-08-05T22:50:23.593Z,12.47
2022-08-05T22:53:35.840Z,12.45
2022-08-05T22:56:39.947Z,12.42
2022-08-05T22:59:45.010Z,12.39
2022-08-05T23:02:53.583Z,12.36
2022-08-05T23:05:55.975Z,12.34
2022-08-05T23:08:57.562Z,12.32
2022-08-05T23:12:20.308Z,12.30
2022-08-05T23:15:29.908Z,12.29
2022-08-05T23:18:36.705Z,12.28
2022-08-05T23:21:42.597Z,12.26
2022-08-05T23:24:51.103Z,12.26
2022-08-05T23:28:00.414Z,12.26
2022-08-05T23:31:17.535Z,12.24
2022-08-05T23:34:24.609Z,12.22
2022-08-05T23:37:26.752Z,12.20
2022-08-05T23:40:38.265Z,12.17
2022-08-05T23:44:05.677Z,12.15
2022-08-05T23:47:02.666Z,12.12
2022-08-05T23:50:20.111Z,12.10
2022-08-05T23:53:22.799Z,12.07
2022-08-05T23:56:27.172Z,12.05
